createdAt,value
2022-10-01T00:05:00.444Z,997
2022-10-01T00:15:04.333Z,997
2022-10-01T00:25:00.423Z,997
2022-10-01T00:35:00.559Z,997
2022-10-01T00:45:00.419Z,997
2022-10-01T00:55:00.562Z,997
2022-10-01T01:05:00.402Z,997
2022-10-01T01:15:00.532Z,997
2022-10-01T01:25:00.431Z,998
2022-10-01T01:35:00.559Z,998
2022-10-01T01:45:00.636Z,998
2022-10-01T01:55:00.545Z,998
2022-10-01T02:05:00.604Z,998
2022-10-01T02:15:00.524Z,998
2022-10-01T02:25:00.636Z,998
2022-10-01T02:35:00.530Z,998
2022-10-01T02:45:00.610Z,998
2022-10-01T02:55:00.550Z,998
2022-10-01T03:05:00.619Z,998
2022-10-01T03:15:00.731Z,998
2022-10-01T03:25:00.598Z,998
2022-10-01T03:35:00.729Z,998
2022-10-01T03:45:00.580Z,998
2022-10-01T03:55:00.825Z,998
2022-10-01T04:05:00.976Z,998
2022-10-01T04:15:00.691Z,999
2022-10-01T04:25:00.771Z,999
2022-10-01T04:35:00.675Z,999
2022-10-01T04:45:00.749Z,999
2022-10-01T04:55:00.676Z,999
2022-10-01T05:05:00.759Z,999
2022-10-01T05:15:00.659Z,999
2022-10-01T05:25:00.738Z,999
2022-10-01T05:35:00.668Z,999
2022-10-01T05:45:00.745Z,999
2022-10-01T05:55:00.875Z,999
2022-10-01T06:05:00.735Z,999
2022-10-01T06:15:00.850Z,999
2022-10-01T06:25:00.722Z,1000
2022-10-01T06:35:00.836Z,1000
2022-10-01T06:45:00.712Z,1000
2022-10-01T06:55:00.878Z,1000
2022-10-01T07:05:00.715Z,1001
2022-10-01T07:15:00.837Z,1001
2022-10-01T07:25:00.902Z,1001
2022-10-01T07:35:00.839Z,1001
2022-10-01T07:45:00.909Z,1002
2022-10-01T07:55:00.829Z,1002
2022-10-01T08:05:00.895Z,1002
2022-10-01T08:15:00.821Z,1002
2022-10-01T08:25:00.899Z,1002
2022-10-01T08:35:01.010Z,1002
2022-10-01T08:45:00.886Z,1002
2022-10-01T08:55:01.051Z,1002
2022-10-01T09:05:02.040Z,1003
2022-10-01T09:15:01.017Z,1003
2022-10-01T09:25:00.890Z,1003
2022-10-01T09:35:04.391Z,1003
2022-10-01T09:45:00.947Z,1004
2022-10-01T09:55:01.058Z,1004
2022-10-01T10:05:00.936Z,1004
2022-10-01T10:15:01.056Z,1004
2022-10-01T10:25:01.099Z,1004
2022-10-01T10:35:03.272Z,1004
2022-10-01T10:45:01.119Z,1004
2022-10-01T10:55:01.077Z,1004
2022-10-01T11:05:01.137Z,1005
2022-10-01T11:15:01.049Z,1006
2022-10-01T11:25:01.189Z,1006
2022-10-01T11:35:01.081Z,1006
2022-10-01T11:45:01.146Z,1006
2022-10-01T11:55:01.063Z,1007
2022-10-01T12:05:01.114Z,1007
2022-10-01T12:15:05.670Z,1007
2022-10-01T12:25:01.140Z,1008
2022-10-01T12:35:01.252Z,1009
2022-10-01T12:45:01.183Z,1009
2022-10-01T12:55:01.219Z,1010
2022-10-01T13:05:01.275Z,1009
2022-10-01T13:15:01.230Z,1009
2022-10-01T13:25:01.093Z,1009
2022-10-01T13:35:01.225Z,1009
2022-10-01T13:45:01.290Z,1009
2022-10-01T13:55:01.201Z,1010
2022-10-01T14:05:01.284Z,1010
2022-10-01T14:15:01.204Z,1010
2022-10-01T14:25:01.292Z,1009
2022-10-01T14:35:01.209Z,1009
2022-10-01T14:45:01.270Z,1010
2022-10-01T14:55:01.408Z,1010
2022-10-01T15:05:01.347Z,1010
2022-10-01T15:15:01.416Z,1010
2022-10-01T15:25:01.269Z,1009
2022-10-01T15:35:01.389Z,1009
2022-10-01T15:45:01.288Z,1008
2022-10-01T15:55:01.413Z,1008
2022-10-01T16:05:01.268Z,1008
2022-10-01T16:15:01.391Z,1008
2022-10-01T16:25:01.465Z,1008
2022-10-01T16:35:01.405Z,1008
2022-10-01T16:45:01.484Z,1009
2022-10-01T16:55:01.402Z,1008
2022-10-01T17:05:01.464Z,1008
2022-10-01T17:15:01.413Z,1008
2022-10-01T17:25:01.464Z,1009
2022-10-01T17:35:01.417Z,1009
2022-10-01T17:45:01.380Z,1009
2022-10-01T17:55:01.510Z,1009
2022-10-01T18:05:01.574Z,1009
2022-10-01T18:15:01.487Z,1009
2022-10-01T18:25:01.554Z,1009
2022-10-01T18:35:01.477Z,1009
2022-10-01T18:45:01.580Z,1009
2022-10-01T18:55:01.521Z,1009
2022-10-01T19:05:01.597Z,1009
2022-10-01T19:15:01.488Z,1009
2022-10-01T19:25:01.557Z,1010
2022-10-01T19:35:01.683Z,1010
2022-10-01T19:45:01.565Z,1010
2022-10-01T19:55:01.677Z,1010
2022-10-01T20:05:01.586Z,1010
2022-10-01T20:15:01.724Z,1010
2022-10-01T20:25:01.620Z,1010
2022-10-01T20:35:01.727Z,1010
2022-10-01T20:45:01.878Z,1010
2022-10-01T20:55:01.723Z,1011
2022-10-01T21:05:01.746Z,1011
2022-10-01T21:15:01.697Z,1011
2022-10-01T21:25:01.717Z,1011
2022-10-01T21:35:01.648Z,1011
2022-10-01T21:45:01.713Z,1011
2022-10-01T21:55:01.681Z,1011
2022-10-01T22:05:01.721Z,1012
2022-10-01T22:15:01.844Z,1012
2022-10-01T22:25:01.726Z,1012
2022-10-01T22:35:01.831Z,1012
2022-10-01T22:45:01.703Z,1012
2022-10-01T22:55:01.842Z,1012
2022-10-01T23:05:01.719Z,1012
2022-10-01T23:15:01.833Z,1012
2022-10-01T23:25:01.895Z,1012
2022-10-01T23:35:01.815Z,1012
2022-10-01T23:45:01.939Z,1012
2022-10-01T23:55:01.827Z,1013
